sensor_id;sensor_type;location;lat;lon;timestamp;P1;durP1;ratioP1;P2;durP2;ratioP2
64520;SDS011;50896;46.714;17.322;2024-01-11T00:01:28;39.10;;;18.08;;
64520;SDS011;50896;46.714;17.322;2024-01-11T00:03:55;36.08;;;15.90;;
64520;SDS011;50896;46.714;17.322;2024-01-11T00:06:22;35.83;;;16.80;;
64520;SDS011;50896;46.714;17.322;2024-01-11T00:08:49;38.70;;;16.23;;
64520;SDS011;50896;46.714;17.322;2024-01-11T00:11:16;35.40;;;16.23;;
64520;SDS011;50896;46.714;17.322;2024-01-11T00:13:44;39.15;;;16.00;;
64520;SDS011;50896;46.714;17.322;2024-01-11T00:16:11;39.25;;;16.63;;
64520;SDS011;50896;46.714;17.322;2024-01-11T00:18:37;39.70;;;17.48;;
64520;SDS011;50896;46.714;17.322;2024-01-11T00:21:04;36.53;;;17.75;;
64520;SDS011;50896;46.714;17.322;2024-01-11T00:23:31;41.25;;;17.88;;
64520;SDS011;50896;46.714;17.322;2024-01-11T00:25:58;35.95;;;16.45;;
64520;SDS011;50896;46.714;17.322;2024-01-11T00:28:26;40.67;;;17.70;;
64520;SDS011;50896;46.714;17.322;2024-01-11T00:30:53;39.03;;;17.45;;
64520;SDS011;50896;46.714;17.322;2024-01-11T00:33:20;36.58;;;16.80;;
64520;SDS011;50896;46.714;17.322;2024-01-11T00:35:47;44.53;;;18.80;;
64520;SDS011;50896;46.714;17.322;2024-01-11T00:38:14;36.28;;;16.90;;
64520;SDS011;50896;46.714;17.322;2024-01-11T00:40:41;35.70;;;16.60;;
64520;SDS011;50896;46.714;17.322;2024-01-11T00:43:07;41.10;;;17.80;;
64520;SDS011;50896;46.714;17.322;2024-01-11T00:45:34;41.22;;;17.83;;
64520;SDS011;50896;46.714;17.322;2024-01-11T00:48:02;40.40;;;17.85;;
64520;SDS011;50896;46.714;17.322;2024-01-11T00:50:29;37.50;;;16.92;;
64520;SDS011;50896;46.714;17.322;2024-01-11T00:52:57;39.20;;;17.50;;
64520;SDS011;50896;46.714;17.322;2024-01-11T00:55:24;38.75;;;17.42;;
64520;SDS011;50896;46.714;17.322;2024-01-11T00:57:51;44.38;;;18.25;;
64520;SDS011;50896;46.714;17.322;2024-01-11T01:00:18;39.13;;;18.38;;
64520;SDS011;50896;46.714;17.322;2024-01-11T01:02:45;38.85;;;17.92;;
64520;SDS011;50896;46.714;17.322;2024-01-11T01:05:12;37.05;;;16.65;;
64520;SDS011;50896;46.714;17.322;2024-01-11T01:07:40;38.55;;;17.63;;
64520;SDS011;50896;46.714;17.322;2024-01-11T01:10:07;40.20;;;18.00;;
64520;SDS011;50896;46.714;17.322;2024-01-11T01:12:35;42.65;;;18.38;;
64520;SDS011;50896;46.714;17.322;2024-01-11T01:15:01;39.92;;;18.25;;
64520;SDS011;50896;46.714;17.322;2024-01-11T01:17:28;38.10;;;17.85;;
64520;SDS011;50896;46.714;17.322;2024-01-11T01:19:55;40.00;;;18.48;;
64520;SDS011;50896;46.714;17.322;2024-01-11T01:22:22;44.63;;;19.77;;
64520;SDS011;50896;46.714;17.322;2024-01-11T01:24:49;51.72;;;21.73;;
64520;SDS011;50896;46.714;17.322;2024-01-11T01:27:16;46.72;;;19.83;;
64520;SDS011;50896;46.714;17.322;2024-01-11T01:29:43;45.60;;;20.13;;
64520;SDS011;50896;46.714;17.322;2024-01-11T01:32:10;44.38;;;19.55;;
64520;SDS011;50896;46.714;17.322;2024-01-11T01:34:37;44.42;;;19.05;;
64520;SDS011;50896;46.714;17.322;2024-01-11T01:37:04;41.83;;;18.92;;
64520;SDS011;50896;46.714;17.322;2024-01-11T01:39:31;45.83;;;20.25;;
64520;SDS011;50896;46.714;17.322;2024-01-11T01:41:58;45.67;;;19.65;;
64520;SDS011;50896;46.714;17.322;2024-01-11T01:44:25;41.00;;;19.40;;
64520;SDS011;50896;46.714;17.322;2024-01-11T01:46:51;41.65;;;18.48;;
64520;SDS011;50896;46.714;17.322;2024-01-11T01:49:19;40.45;;;18.33;;
64520;SDS011;50896;46.714;17.322;2024-01-11T01:54:17;49.72;;;18.65;;
64520;SDS011;50896;46.714;17.322;2024-01-11T01:56:45;43.92;;;19.52;;
64520;SDS011;50896;46.714;17.322;2024-01-11T01:59:12;41.45;;;18.58;;
64520;SDS011;50896;46.714;17.322;2024-01-11T02:01:41;40.83;;;17.40;;
64520;SDS011;50896;46.714;17.322;2024-01-11T02:04:09;37.13;;;17.33;;
64520;SDS011;50896;46.714;17.322;2024-01-11T02:06:36;40.78;;;18.23;;
64520;SDS011;50896;46.714;17.322;2024-01-11T02:09:04;44.50;;;18.15;;
64520;SDS011;50896;46.714;17.322;2024-01-11T02:11:32;40.25;;;17.30;;
64520;SDS011;50896;46.714;17.322;2024-01-11T02:14:00;40.58;;;17.60;;
64520;SDS011;50896;46.714;17.322;2024-01-11T02:16:27;41.45;;;17.98;;
64520;SDS011;50896;46.714;17.322;2024-01-11T02:18:54;49.08;;;18.95;;
64520;SDS011;50896;46.714;17.322;2024-01-11T02:21:21;40.47;;;17.30;;
64520;SDS011;50896;46.714;17.322;2024-01-11T02:24:06;40.80;;;18.15;;
64520;SDS011;50896;46.714;17.322;2024-01-11T02:26:33;43.03;;;17.67;;
64520;SDS011;50896;46.714;17.322;2024-01-11T02:29:01;42.78;;;18.42;;
64520;SDS011;50896;46.714;17.322;2024-01-11T02:31:28;40.08;;;17.58;;
64520;SDS011;50896;46.714;17.322;2024-01-11T02:33:55;43.83;;;18.75;;
64520;SDS011;50896;46.714;17.322;2024-01-11T02:36:22;38.95;;;18.00;;
64520;SDS011;50896;46.714;17.322;2024-01-11T02:38:49;45.50;;;19.55;;
64520;SDS011;50896;46.714;17.322;2024-01-11T02:41:18;43.00;;;18.83;;
64520;SDS011;50896;46.714;17.322;2024-01-11T02:43:46;45.78;;;19.52;;
64520;SDS011;50896;46.714;17.322;2024-01-11T02:46:16;47.08;;;20.92;;
64520;SDS011;50896;46.714;17.322;2024-01-11T02:48:44;44.17;;;19.58;;
64520;SDS011;50896;46.714;17.322;2024-01-11T02:51:11;44.83;;;19.60;;
64520;SDS011;50896;46.714;17.322;2024-01-11T02:53:38;43.88;;;19.13;;
64520;SDS011;50896;46.714;17.322;2024-01-11T02:56:05;46.05;;;20.83;;
64520;SDS011;50896;46.714;17.322;2024-01-11T02:58:32;50.50;;;21.58;;
64520;SDS011;50896;46.714;17.322;2024-01-11T03:00:59;50.13;;;21.33;;
64520;SDS011;50896;46.714;17.322;2024-01-11T03:03:26;46.95;;;20.08;;
64520;SDS011;50896;46.714;17.322;2024-01-11T03:05:53;47.08;;;20.08;;
64520;SDS011;50896;46.714;17.322;2024-01-11T03:08:20;47.65;;;20.60;;
64520;SDS011;50896;46.714;17.322;2024-01-11T03:10:47;48.17;;;19.88;;
64520;SDS011;50896;46.714;17.322;2024-01-11T03:13:14;49.08;;;20.33;;
64520;SDS011;50896;46.714;17.322;2024-01-11T03:15:41;44.70;;;19.80;;
64520;SDS011;50896;46.714;17.322;2024-01-11T03:18:08;49.85;;;20.83;;
64520;SDS011;50896;46.714;17.322;2024-01-11T03:20:36;46.60;;;21.50;;
64520;SDS011;50896;46.714;17.322;2024-01-11T03:23:03;51.58;;;22.70;;
64520;SDS011;50896;46.714;17.322;2024-01-11T03:25:29;50.03;;;21.30;;
64520;SDS011;50896;46.714;17.322;2024-01-11T03:27:57;53.92;;;23.25;;
64520;SDS011;50896;46.714;17.322;2024-01-11T03:30:25;47.50;;;21.13;;
64520;SDS011;50896;46.714;17.322;2024-01-11T03:32:52;45.53;;;20.25;;
64520;SDS011;50896;46.714;17.322;2024-01-11T03:35:19;51.65;;;20.88;;
64520;SDS011;50896;46.714;17.322;2024-01-11T03:37:47;42.08;;;18.55;;
64520;SDS011;50896;46.714;17.322;2024-01-11T03:40:14;51.65;;;20.58;;
64520;SDS011;50896;46.714;17.322;2024-01-11T03:42:41;44.10;;;20.67;;
64520;SDS011;50896;46.714;17.322;2024-01-11T03:45:09;47.53;;;20.05;;
64520;SDS011;50896;46.714;17.322;2024-01-11T03:47:36;50.22;;;20.48;;
64520;SDS011;50896;46.714;17.322;2024-01-11T03:50:04;45.30;;;20.75;;
64520;SDS011;50896;46.714;17.322;2024-01-11T03:52:31;50.88;;;21.27;;
64520;SDS011;50896;46.714;17.322;2024-01-11T03:54:58;54.72;;;22.45;;
64520;SDS011;50896;46.714;17.322;2024-01-11T03:57:25;42.15;;;19.85;;
64520;SDS011;50896;46.714;17.322;2024-01-11T03:59:52;44.63;;;20.33;;
64520;SDS011;50896;46.714;17.322;2024-01-11T04:02:19;50.63;;;21.20;;
64520;SDS011;50896;46.714;17.322;2024-01-11T04:04:46;47.00;;;21.13;;
64520;SDS011;50896;46.714;17.322;2024-01-11T04:07:13;49.53;;;21.90;;
64520;SDS011;50896;46.714;17.322;2024-01-11T04:09:40;48.47;;;20.48;;
64520;SDS011;50896;46.714;17.322;2024-01-11T04:12:07;48.42;;;21.73;;
64520;SDS011;50896;46.714;17.322;2024-01-11T04:14:37;49.80;;;21.05;;
64520;SDS011;50896;46.714;17.322;2024-01-11T04:17:05;49.92;;;21.77;;
64520;SDS011;50896;46.714;17.322;2024-01-11T04:19:32;51.20;;;22.48;;
64520;SDS011;50896;46.714;17.322;2024-01-11T04:21:59;48.60;;;20.92;;
64520;SDS011;50896;46.714;17.322;2024-01-11T04:24:26;48.53;;;21.05;;
64520;SDS011;50896;46.714;17.322;2024-01-11T04:26:53;49.55;;;20.80;;
64520;SDS011;50896;46.714;17.322;2024-01-11T04:29:20;50.67;;;22.13;;
64520;SDS011;50896;46.714;17.322;2024-01-11T04:31:47;52.25;;;23.83;;
64520;SDS011;50896;46.714;17.322;2024-01-11T04:34:14;78.97;;;41.47;;
64520;SDS011;50896;46.714;17.322;2024-01-11T04:36:41;84.75;;;46.25;;
64520;SDS011;50896;46.714;17.322;2024-01-11T04:39:08;80.32;;;41.00;;
64520;SDS011;50896;46.714;17.322;2024-01-11T04:41:35;77.32;;;36.78;;
64520;SDS011;50896;46.714;17.322;2024-01-11T04:44:03;68.25;;;31.58;;
64520;SDS011;50896;46.714;17.322;2024-01-11T04:46:30;64.63;;;28.00;;
64520;SDS011;50896;46.714;17.322;2024-01-11T04:48:57;67.20;;;28.45;;
64520;SDS011;50896;46.714;17.322;2024-01-11T04:51:24;68.18;;;28.35;;
64520;SDS011;50896;46.714;17.322;2024-01-11T04:53:51;69.35;;;28.25;;
64520;SDS011;50896;46.714;17.322;2024-01-11T04:56:18;66.03;;;25.98;;
64520;SDS011;50896;46.714;17.322;2024-01-11T04:58:45;55.35;;;25.55;;
64520;SDS011;50896;46.714;17.322;2024-01-11T05:01:13;59.13;;;24.33;;
64520;SDS011;50896;46.714;17.322;2024-01-11T05:03:45;61.15;;;24.58;;
64520;SDS011;50896;46.714;17.322;2024-01-11T05:06:17;56.53;;;24.30;;
64520;SDS011;50896;46.714;17.322;2024-01-11T05:08:51;51.88;;;24.05;;
64520;SDS011;50896;46.714;17.322;2024-01-11T05:11:19;51.67;;;22.35;;
64520;SDS011;50896;46.714;17.322;2024-01-11T05:13:48;52.15;;;22.60;;
64520;SDS011;50896;46.714;17.322;2024-01-11T05:16:22;52.90;;;22.15;;
64520;SDS011;50896;46.714;17.322;2024-01-11T05:18:51;57.17;;;23.83;;
64520;SDS011;50896;46.714;17.322;2024-01-11T05:21:19;52.22;;;22.23;;
64520;SDS011;50896;46.714;17.322;2024-01-11T05:23:46;49.72;;;22.73;;
64520;SDS011;50896;46.714;17.322;2024-01-11T05:26:15;51.50;;;22.10;;
64520;SDS011;50896;46.714;17.322;2024-01-11T05:28:43;52.95;;;22.65;;
64520;SDS011;50896;46.714;17.322;2024-01-11T05:31:11;55.80;;;22.42;;
64520;SDS011;50896;46.714;17.322;2024-01-11T05:33:40;55.55;;;23.42;;
64520;SDS011;50896;46.714;17.322;2024-01-11T05:36:08;59.20;;;23.27;;
64520;SDS011;50896;46.714;17.322;2024-01-11T05:38:35;56.00;;;24.10;;
64520;SDS011;50896;46.714;17.322;2024-01-11T05:41:02;58.75;;;25.02;;
64520;SDS011;50896;46.714;17.322;2024-01-11T05:43:29;67.15;;;27.70;;
64520;SDS011;50896;46.714;17.322;2024-01-11T05:45:56;66.47;;;26.80;;
64520;SDS011;50896;46.714;17.322;2024-01-11T05:48:23;62.40;;;26.73;;
64520;SDS011;50896;46.714;17.322;2024-01-11T05:50:51;68.65;;;27.77;;
64520;SDS011;50896;46.714;17.322;2024-01-11T05:53:18;62.47;;;25.25;;
64520;SDS011;50896;46.714;17.322;2024-01-11T05:55:47;68.00;;;26.75;;
64520;SDS011;50896;46.714;17.322;2024-01-11T05:58:15;60.60;;;25.80;;
64520;SDS011;50896;46.714;17.322;2024-01-11T06:00:42;68.28;;;27.67;;
64520;SDS011;50896;46.714;17.322;2024-01-11T06:03:11;74.47;;;28.90;;
64520;SDS011;50896;46.714;17.322;2024-01-11T06:05:39;67.93;;;26.92;;
64520;SDS011;50896;46.714;17.322;2024-01-11T06:08:06;59.08;;;25.58;;
64520;SDS011;50896;46.714;17.322;2024-01-11T06:10:33;62.70;;;26.48;;
64520;SDS011;50896;46.714;17.322;2024-01-11T06:13:00;56.28;;;25.98;;
64520;SDS011;50896;46.714;17.322;2024-01-11T06:15:27;63.90;;;26.27;;
64520;SDS011;50896;46.714;17.322;2024-01-11T06:17:54;63.78;;;26.13;;
64520;SDS011;50896;46.714;17.322;2024-01-11T06:20:21;77.70;;;32.67;;
64520;SDS011;50896;46.714;17.322;2024-01-11T06:22:48;65.50;;;30.80;;
64520;SDS011;50896;46.714;17.322;2024-01-11T06:25:15;61.05;;;27.10;;
64520;SDS011;50896;46.714;17.322;2024-01-11T06:27:42;66.50;;;28.88;;
64520;SDS011;50896;46.714;17.322;2024-01-11T06:30:12;72.43;;;29.38;;
64520;SDS011;50896;46.714;17.322;2024-01-11T06:32:39;83.32;;;35.60;;
64520;SDS011;50896;46.714;17.322;2024-01-11T06:35:06;106.15;;;44.85;;
64520;SDS011;50896;46.714;17.322;2024-01-11T06:37:34;110.95;;;46.53;;
64520;SDS011;50896;46.714;17.322;2024-01-11T06:40:01;108.30;;;45.55;;
64520;SDS011;50896;46.714;17.322;2024-01-11T06:42:27;89.18;;;38.22;;
64520;SDS011;50896;46.714;17.322;2024-01-11T06:44:54;88.55;;;34.97;;
64520;SDS011;50896;46.714;17.322;2024-01-11T06:47:21;73.78;;;29.85;;
64520;SDS011;50896;46.714;17.322;2024-01-11T06:49:48;69.72;;;31.08;;
64520;SDS011;50896;46.714;17.322;2024-01-11T06:52:15;76.95;;;32.10;;
64520;SDS011;50896;46.714;17.322;2024-01-11T06:54:42;69.35;;;30.13;;
64520;SDS011;50896;46.714;17.322;2024-01-11T06:57:09;85.05;;;36.40;;
64520;SDS011;50896;46.714;17.322;2024-01-11T06:59:36;89.93;;;35.58;;
64520;SDS011;50896;46.714;17.322;2024-01-11T07:02:03;77.00;;;33.47;;
64520;SDS011;50896;46.714;17.322;2024-01-11T07:04:30;65.45;;;29.05;;
64520;SDS011;50896;46.714;17.322;2024-01-11T07:07:00;75.43;;;28.75;;
64520;SDS011;50896;46.714;17.322;2024-01-11T07:09:27;84.88;;;32.80;;
64520;SDS011;50896;46.714;17.322;2024-01-11T07:11:54;74.50;;;31.20;;
64520;SDS011;50896;46.714;17.322;2024-01-11T07:14:21;63.97;;;26.52;;
64520;SDS011;50896;46.714;17.322;2024-01-11T07:16:48;68.28;;;27.58;;
64520;SDS011;50896;46.714;17.322;2024-01-11T07:19:15;66.65;;;28.30;;
64520;SDS011;50896;46.714;17.322;2024-01-11T07:21:43;68.65;;;30.48;;
64520;SDS011;50896;46.714;17.322;2024-01-11T07:24:09;73.03;;;29.90;;
64520;SDS011;50896;46.714;17.322;2024-01-11T07:26:36;72.25;;;30.75;;
64520;SDS011;50896;46.714;17.322;2024-01-11T07:29:03;67.85;;;30.35;;
64520;SDS011;50896;46.714;17.322;2024-01-11T07:31:31;70.47;;;29.88;;
64520;SDS011;50896;46.714;17.322;2024-01-11T07:33:57;69.43;;;30.27;;
64520;SDS011;50896;46.714;17.322;2024-01-11T07:36:24;68.85;;;28.95;;
64520;SDS011;50896;46.714;17.322;2024-01-11T07:38:52;63.00;;;28.02;;
64520;SDS011;50896;46.714;17.322;2024-01-11T07:41:21;65.63;;;28.10;;
64520;SDS011;50896;46.714;17.322;2024-01-11T07:43:48;64.05;;;28.02;;
64520;SDS011;50896;46.714;17.322;2024-01-11T07:46:20;62.72;;;28.60;;
64520;SDS011;50896;46.714;17.322;2024-01-11T07:49:02;60.03;;;26.77;;
64520;SDS011;50896;46.714;17.322;2024-01-11T07:53:58;68.30;;;28.20;;
64520;SDS011;50896;46.714;17.322;2024-01-11T07:56:25;65.20;;;27.88;;
64520;SDS011;50896;46.714;17.322;2024-01-11T07:58:52;69.55;;;28.95;;
64520;SDS011;50896;46.714;17.322;2024-01-11T08:01:19;61.13;;;27.98;;
64520;SDS011;50896;46.714;17.322;2024-01-11T08:03:47;70.15;;;30.80;;
64520;SDS011;50896;46.714;17.322;2024-01-11T08:06:14;68.70;;;30.33;;
64520;SDS011;50896;46.714;17.322;2024-01-11T08:08:41;73.97;;;32.58;;
64520;SDS011;50896;46.714;17.322;2024-01-11T08:11:09;84.68;;;34.00;;
64520;SDS011;50896;46.714;17.322;2024-01-11T08:13:40;77.22;;;34.22;;
64520;SDS011;50896;46.714;17.322;2024-01-11T08:16:06;93.45;;;38.35;;
64520;SDS011;50896;46.714;17.322;2024-01-11T08:18:36;81.80;;;36.70;;
64520;SDS011;50896;46.714;17.322;2024-01-11T08:21:03;83.20;;;34.22;;
64520;SDS011;50896;46.714;17.322;2024-01-11T08:23:42;84.20;;;36.25;;
64520;SDS011;50896;46.714;17.322;2024-01-11T08:26:18;87.47;;;39.78;;
64520;SDS011;50896;46.714;17.322;2024-01-11T08:37:56;86.70;;;35.42;;
64520;SDS011;50896;46.714;17.322;2024-01-11T08:40:23;87.07;;;35.22;;
64520;SDS011;50896;46.714;17.322;2024-01-11T08:42:50;85.75;;;36.85;;
64520;SDS011;50896;46.714;17.322;2024-01-11T08:45:17;82.47;;;36.05;;
64520;SDS011;50896;46.714;17.322;2024-01-11T08:47:49;81.85;;;35.53;;
64520;SDS011;50896;46.714;17.322;2024-01-11T08:50:16;85.43;;;34.38;;
64520;SDS011;50896;46.714;17.322;2024-01-11T08:52:49;72.85;;;32.08;;
64520;SDS011;50896;46.714;17.322;2024-01-11T08:55:16;84.28;;;34.83;;
64520;SDS011;50896;46.714;17.322;2024-01-11T08:57:43;75.07;;;33.55;;
64520;SDS011;50896;46.714;17.322;2024-01-11T09:00:10;77.78;;;33.72;;
64520;SDS011;50896;46.714;17.322;2024-01-11T09:02:38;75.45;;;32.63;;
64520;SDS011;50896;46.714;17.322;2024-01-11T09:05:05;74.20;;;33.55;;
64520;SDS011;50896;46.714;17.322;2024-01-11T09:07:35;74.32;;;33.55;;
64520;SDS011;50896;46.714;17.322;2024-01-11T09:10:02;80.35;;;36.38;;
64520;SDS011;50896;46.714;17.322;2024-01-11T09:12:29;69.97;;;31.35;;
64520;SDS011;50896;46.714;17.322;2024-01-11T09:14:56;69.40;;;32.50;;
64520;SDS011;50896;46.714;17.322;2024-01-11T09:17:22;79.45;;;34.33;;
64520;SDS011;50896;46.714;17.322;2024-01-11T09:19:50;75.97;;;34.42;;
64520;SDS011;50896;46.714;17.322;2024-01-11T09:22:17;70.55;;;32.95;;
64520;SDS011;50896;46.714;17.322;2024-01-11T09:24:44;68.25;;;32.50;;
64520;SDS011;50896;46.714;17.322;2024-01-11T09:27:11;73.07;;;32.88;;
64520;SDS011;50896;46.714;17.322;2024-01-11T09:29:44;72.90;;;33.15;;
64520;SDS011;50896;46.714;17.322;2024-01-11T09:32:12;77.40;;;34.47;;
64520;SDS011;50896;46.714;17.322;2024-01-11T09:34:39;79.43;;;33.85;;
64520;SDS011;50896;46.714;17.322;2024-01-11T09:37:07;79.35;;;34.30;;
64520;SDS011;50896;46.714;17.322;2024-01-11T09:39:34;72.68;;;33.33;;
64520;SDS011;50896;46.714;17.322;2024-01-11T09:42:07;70.82;;;31.77;;
64520;SDS011;50896;46.714;17.322;2024-01-11T09:44:38;66.15;;;30.73;;
64520;SDS011;50896;46.714;17.322;2024-01-11T09:47:06;66.40;;;30.98;;
64520;SDS011;50896;46.714;17.322;2024-01-11T09:49:40;64.40;;;30.50;;
64520;SDS011;50896;46.714;17.322;2024-01-11T09:52:08;61.00;;;28.73;;
64520;SDS011;50896;46.714;17.322;2024-01-11T09:54:38;60.67;;;29.33;;
64520;SDS011;50896;46.714;17.322;2024-01-11T09:57:06;60.50;;;28.17;;
64520;SDS011;50896;46.714;17.322;2024-01-11T09:59:36;56.53;;;27.57;;
64520;SDS011;50896;46.714;17.322;2024-01-11T10:02:03;61.35;;;30.13;;
64520;SDS011;50896;46.714;17.322;2024-01-11T10:04:35;61.20;;;27.73;;
64520;SDS011;50896;46.714;17.322;2024-01-11T10:07:04;57.95;;;28.23;;
64520;SDS011;50896;46.714;17.322;2024-01-11T10:09:34;60.85;;;26.08;;
64520;SDS011;50896;46.714;17.322;2024-01-11T10:12:01;59.33;;;27.58;;
64520;SDS011;50896;46.714;17.322;2024-01-11T10:14:28;53.42;;;25.60;;
64520;SDS011;50896;46.714;17.322;2024-01-11T10:16:56;52.33;;;25.80;;
64520;SDS011;50896;46.714;17.322;2024-01-11T10:19:23;54.20;;;25.67;;
64520;SDS011;50896;46.714;17.322;2024-01-11T10:21:51;45.60;;;22.08;;
64520;SDS011;50896;46.714;17.322;2024-01-11T10:24:18;40.05;;;19.10;;
64520;SDS011;50896;46.714;17.322;2024-01-11T10:26:47;38.22;;;17.23;;
64520;SDS011;50896;46.714;17.322;2024-01-11T10:29:14;42.53;;;18.23;;
64520;SDS011;50896;46.714;17.322;2024-01-11T10:31:41;39.70;;;19.33;;
64520;SDS011;50896;46.714;17.322;2024-01-11T10:34:08;36.03;;;20.23;;
64520;SDS011;50896;46.714;17.322;2024-01-11T10:36:35;39.63;;;20.13;;
64520;SDS011;50896;46.714;17.322;2024-01-11T10:39:02;47.38;;;22.40;;
64520;SDS011;50896;46.714;17.322;2024-01-11T10:41:38;46.17;;;21.02;;
64520;SDS011;50896;46.714;17.322;2024-01-11T10:44:10;37.92;;;20.10;;
64520;SDS011;50896;46.714;17.322;2024-01-11T10:46:45;41.15;;;20.38;;
64520;SDS011;50896;46.714;17.322;2024-01-11T10:49:14;42.40;;;20.55;;
64520;SDS011;50896;46.714;17.322;2024-01-11T10:52:03;38.88;;;20.40;;
64520;SDS011;50896;46.714;17.322;2024-01-11T10:54:35;39.28;;;19.58;;
64520;SDS011;50896;46.714;17.322;2024-01-11T10:57:03;36.08;;;18.45;;
64520;SDS011;50896;46.714;17.322;2024-01-11T10:59:32;37.10;;;18.73;;
64520;SDS011;50896;46.714;17.322;2024-01-11T11:04:39;39.33;;;18.65;;
64520;SDS011;50896;46.714;17.322;2024-01-11T11:07:06;32.85;;;16.73;;
64520;SDS011;50896;46.714;17.322;2024-01-11T11:09:34;30.65;;;15.15;;
64520;SDS011;50896;46.714;17.322;2024-01-11T11:12:02;32.83;;;16.92;;
64520;SDS011;50896;46.714;17.322;2024-01-11T11:14:32;35.15;;;16.25;;
64520;SDS011;50896;46.714;17.322;2024-01-11T11:17:01;30.50;;;15.68;;
64520;SDS011;50896;46.714;17.322;2024-01-11T11:19:29;33.03;;;16.13;;
64520;SDS011;50896;46.714;17.322;2024-01-11T11:21:56;32.75;;;17.20;;
64520;SDS011;50896;46.714;17.322;2024-01-11T11:24:23;33.75;;;16.90;;
64520;SDS011;50896;46.714;17.322;2024-01-11T11:26:50;35.58;;;16.85;;
64520;SDS011;50896;46.714;17.322;2024-01-11T11:29:17;35.53;;;18.58;;
64520;SDS011;50896;46.714;17.322;2024-01-11T11:31:45;39.35;;;17.33;;
64520;SDS011;50896;46.714;17.322;2024-01-11T11:34:20;38.35;;;19.55;;
64520;SDS011;50896;46.714;17.322;2024-01-11T11:37:06;33.30;;;17.48;;
64520;SDS011;50896;46.714;17.322;2024-01-11T11:39:33;29.80;;;15.75;;
64520;SDS011;50896;46.714;17.322;2024-01-11T11:42:00;32.20;;;16.48;;
64520;SDS011;50896;46.714;17.322;2024-01-11T11:44:28;32.72;;;16.48;;
64520;SDS011;50896;46.714;17.322;2024-01-11T11:46:55;31.23;;;17.45;;
64520;SDS011;50896;46.714;17.322;2024-01-11T11:49:37;29.95;;;16.30;;
64520;SDS011;50896;46.714;17.322;2024-01-11T11:52:27;28.05;;;17.30;;
64520;SDS011;50896;46.714;17.322;2024-01-11T11:54:55;29.25;;;17.23;;
64520;SDS011;50896;46.714;17.322;2024-01-11T11:57:23;26.17;;;16.42;;
64520;SDS011;50896;46.714;17.322;2024-01-11T11:59:50;31.38;;;17.20;;
64520;SDS011;50896;46.714;17.322;2024-01-11T12:02:17;28.33;;;17.10;;
64520;SDS011;50896;46.714;17.322;2024-01-11T12:04:47;29.38;;;18.45;;
64520;SDS011;50896;46.714;17.322;2024-01-11T12:07:14;29.52;;;17.45;;
64520;SDS011;50896;46.714;17.322;2024-01-11T12:09:42;30.30;;;17.35;;
64520;SDS011;50896;46.714;17.322;2024-01-11T12:12:09;29.45;;;17.55;;
64520;SDS011;50896;46.714;17.322;2024-01-11T12:14:41;30.80;;;17.55;;
64520;SDS011;50896;46.714;17.322;2024-01-11T12:17:09;33.20;;;18.38;;
64520;SDS011;50896;46.714;17.322;2024-01-11T12:19:36;30.00;;;17.48;;
64520;SDS011;50896;46.714;17.322;2024-01-11T12:22:03;27.73;;;16.40;;
64520;SDS011;50896;46.714;17.322;2024-01-11T12:24:30;34.70;;;18.08;;
64520;SDS011;50896;46.714;17.322;2024-01-11T12:26:57;32.58;;;18.67;;
64520;SDS011;50896;46.714;17.322;2024-01-11T12:29:24;30.10;;;17.75;;
64520;SDS011;50896;46.714;17.322;2024-01-11T12:31:51;31.98;;;17.55;;
64520;SDS011;50896;46.714;17.322;2024-01-11T12:34:18;31.23;;;16.52;;
64520;SDS011;50896;46.714;17.322;2024-01-11T12:36:45;28.33;;;15.32;;
64520;SDS011;50896;46.714;17.322;2024-01-11T12:39:13;29.08;;;16.25;;
64520;SDS011;50896;46.714;17.322;2024-01-11T12:41:40;27.48;;;15.65;;
64520;SDS011;50896;46.714;17.322;2024-01-11T12:44:08;32.40;;;15.98;;
64520;SDS011;50896;46.714;17.322;2024-01-11T12:46:35;31.00;;;15.75;;
64520;SDS011;50896;46.714;17.322;2024-01-11T12:49:02;29.65;;;15.80;;
64520;SDS011;50896;46.714;17.322;2024-01-11T12:51:29;28.23;;;15.90;;
64520;SDS011;50896;46.714;17.322;2024-01-11T12:53:56;31.35;;;15.27;;
64520;SDS011;50896;46.714;17.322;2024-01-11T12:56:24;30.30;;;14.65;;
64520;SDS011;50896;46.714;17.322;2024-01-11T12:58:51;27.75;;;13.90;;
64520;SDS011;50896;46.714;17.322;2024-01-11T13:01:18;26.60;;;13.45;;
64520;SDS011;50896;46.714;17.322;2024-01-11T13:03:45;28.05;;;14.77;;
64520;SDS011;50896;46.714;17.322;2024-01-11T13:06:12;25.13;;;13.13;;
64520;SDS011;50896;46.714;17.322;2024-01-11T13:08:41;25.15;;;13.13;;
64520;SDS011;50896;46.714;17.322;2024-01-11T13:11:09;25.92;;;12.32;;
64520;SDS011;50896;46.714;17.322;2024-01-11T13:13:37;26.38;;;12.20;;
64520;SDS011;50896;46.714;17.322;2024-01-11T13:16:04;21.70;;;11.32;;
64520;SDS011;50896;46.714;17.322;2024-01-11T13:18:32;24.42;;;12.25;;
64520;SDS011;50896;46.714;17.322;2024-01-11T13:21:00;29.25;;;13.68;;
64520;SDS011;50896;46.714;17.322;2024-01-11T13:23:27;22.77;;;11.90;;
64520;SDS011;50896;46.714;17.322;2024-01-11T13:25:54;26.45;;;12.93;;
64520;SDS011;50896;46.714;17.322;2024-01-11T13:28:21;26.27;;;12.63;;
64520;SDS011;50896;46.714;17.322;2024-01-11T13:30:47;26.42;;;12.60;;
64520;SDS011;50896;46.714;17.322;2024-01-11T13:33:15;22.77;;;11.48;;
64520;SDS011;50896;46.714;17.322;2024-01-11T13:35:45;26.05;;;11.98;;
64520;SDS011;50896;46.714;17.322;2024-01-11T13:38:12;27.60;;;12.93;;
64520;SDS011;50896;46.714;17.322;2024-01-11T13:40:39;24.63;;;12.82;;
64520;SDS011;50896;46.714;17.322;2024-01-11T13:43:07;26.48;;;12.88;;
64520;SDS011;50896;46.714;17.322;2024-01-11T13:45:34;24.23;;;12.63;;
64520;SDS011;50896;46.714;17.322;2024-01-11T13:48:04;23.40;;;12.77;;
64520;SDS011;50896;46.714;17.322;2024-01-11T13:50:33;28.13;;;14.60;;
64520;SDS011;50896;46.714;17.322;2024-01-11T13:53:01;25.73;;;13.63;;
64520;SDS011;50896;46.714;17.322;2024-01-11T13:55:28;26.48;;;13.68;;
64520;SDS011;50896;46.714;17.322;2024-01-11T13:58:05;27.27;;;14.38;;
64520;SDS011;50896;46.714;17.322;2024-01-11T14:00:32;27.95;;;15.00;;
64520;SDS011;50896;46.714;17.322;2024-01-11T14:03:00;27.92;;;14.15;;
64520;SDS011;50896;46.714;17.322;2024-01-11T14:05:28;23.33;;;12.80;;
64520;SDS011;50896;46.714;17.322;2024-01-11T14:07:55;26.40;;;13.60;;
64520;SDS011;50896;46.714;17.322;2024-01-11T14:10:25;23.70;;;12.98;;
64520;SDS011;50896;46.714;17.322;2024-01-11T14:12:54;28.67;;;13.48;;
64520;SDS011;50896;46.714;17.322;2024-01-11T14:15:21;25.75;;;12.98;;
64520;SDS011;50896;46.714;17.322;2024-01-11T14:17:49;23.92;;;12.98;;
64520;SDS011;50896;46.714;17.322;2024-01-11T14:20:16;28.98;;;14.05;;
64520;SDS011;50896;46.714;17.322;2024-01-11T14:22:44;31.40;;;15.90;;
64520;SDS011;50896;46.714;17.322;2024-01-11T14:25:16;29.67;;;14.77;;
64520;SDS011;50896;46.714;17.322;2024-01-11T14:27:44;32.10;;;15.35;;
64520;SDS011;50896;46.714;17.322;2024-01-11T14:30:11;34.85;;;16.02;;